sensor_id;sensor_type;location;lat;lon;timestamp;P1;durP1;ratioP1;P2;durP2;ratioP2
77324;SDS011;66387;53.440;10.390;2023-04-04T00:00:51;1.37;;;1.07;;
77324;SDS011;66387;53.440;10.390;2023-04-04T00:03:16;2.00;;;1.60;;
77324;SDS011;66387;53.440;10.390;2023-04-04T00:05:42;4.00;;;1.70;;
77324;SDS011;66387;53.440;10.390;2023-04-04T00:08:07;1.73;;;1.42;;
77324;SDS011;66387;53.440;10.390;2023-04-04T00:10:32;2.30;;;1.50;;
77324;SDS011;66387;53.440;10.390;2023-04-04T00:12:58;2.87;;;1.40;;
77324;SDS011;66387;53.440;10.390;2023-04-04T00:15:23;2.53;;;1.60;;
77324;SDS011;66387;53.440;10.390;2023-04-04T00:17:48;2.80;;;1.93;;
77324;SDS011;66387;53.440;10.390;2023-04-04T00:20:13;2.80;;;2.10;;
77324;SDS011;66387;53.440;10.390;2023-04-04T00:22:39;4.50;;;1.75;;
77324;SDS011;66387;53.440;10.390;2023-04-04T00:25:05;4.20;;;1.48;;
77324;SDS011;66387;53.440;10.390;2023-04-04T00:27:30;6.35;;;2.05;;
77324;SDS011;66387;53.440;10.390;2023-04-04T00:29:55;2.05;;;1.27;;
77324;SDS011;66387;53.440;10.390;2023-04-04T00:32:21;3.50;;;1.30;;
77324;SDS011;66387;53.440;10.390;2023-04-04T00:34:50;2.93;;;1.30;;
77324;SDS011;66387;53.440;10.390;2023-04-04T00:37:16;1.40;;;1.00;;
77324;SDS011;66387;53.440;10.390;2023-04-04T00:39:42;4.53;;;1.47;;
77324;SDS011;66387;53.440;10.390;2023-04-04T00:42:08;1.48;;;1.10;;
77324;SDS011;66387;53.440;10.390;2023-04-04T00:44:33;2.03;;;1.10;;
77324;SDS011;66387;53.440;10.390;2023-04-04T00:47:00;2.38;;;1.08;;
77324;SDS011;66387;53.440;10.390;2023-04-04T00:49:25;4.95;;;1.77;;
77324;SDS011;66387;53.440;10.390;2023-04-04T00:51:51;3.90;;;1.55;;
77324;SDS011;66387;53.440;10.390;2023-04-04T00:54:16;3.30;;;1.63;;
77324;SDS011;66387;53.440;10.390;2023-04-04T00:56:42;2.72;;;1.45;;
77324;SDS011;66387;53.440;10.390;2023-04-04T00:59:07;2.85;;;1.75;;
77324;SDS011;66387;53.440;10.390;2023-04-04T01:01:33;4.55;;;1.58;;
77324;SDS011;66387;53.440;10.390;2023-04-04T01:04:00;4.43;;;2.30;;
77324;SDS011;66387;53.440;10.390;2023-04-04T01:06:26;4.70;;;2.10;;
77324;SDS011;66387;53.440;10.390;2023-04-04T01:08:52;2.30;;;1.50;;
77324;SDS011;66387;53.440;10.390;2023-04-04T01:11:18;3.55;;;2.13;;
77324;SDS011;66387;53.440;10.390;2023-04-04T01:13:43;1.93;;;1.43;;
77324;SDS011;66387;53.440;10.390;2023-04-04T01:16:09;5.03;;;2.47;;
77324;SDS011;66387;53.440;10.390;2023-04-04T01:18:34;2.85;;;1.98;;
77324;SDS011;66387;53.440;10.390;2023-04-04T01:21:01;4.05;;;2.42;;
77324;SDS011;66387;53.440;10.390;2023-04-04T01:26:24;2.97;;;1.45;;
77324;SDS011;66387;53.440;10.390;2023-04-04T01:28:51;5.35;;;2.22;;
77324;SDS011;66387;53.440;10.390;2023-04-04T01:31:17;3.58;;;1.70;;
77324;SDS011;66387;53.440;10.390;2023-04-04T01:33:53;6.07;;;2.03;;
77324;SDS011;66387;53.440;10.390;2023-04-04T01:36:30;4.35;;;1.55;;
77324;SDS011;66387;53.440;10.390;2023-04-04T01:41:42;5.10;;;2.10;;
77324;SDS011;66387;53.440;10.390;2023-04-04T01:44:11;4.13;;;2.28;;
77324;SDS011;66387;53.440;10.390;2023-04-04T01:46:38;4.47;;;2.30;;
77324;SDS011;66387;53.440;10.390;2023-04-04T01:49:03;5.60;;;2.83;;
77324;SDS011;66387;53.440;10.390;2023-04-04T01:51:29;4.05;;;2.08;;
77324;SDS011;66387;53.440;10.390;2023-04-04T01:53:54;3.28;;;1.90;;
77324;SDS011;66387;53.440;10.390;2023-04-04T01:56:20;4.07;;;1.80;;
77324;SDS011;66387;53.440;10.390;2023-04-04T01:58:45;3.60;;;1.60;;
77324;SDS011;66387;53.440;10.390;2023-04-04T02:01:11;4.28;;;2.13;;
77324;SDS011;66387;53.440;10.390;2023-04-04T02:03:36;6.75;;;1.60;;
77324;SDS011;66387;53.440;10.390;2023-04-04T02:06:01;3.10;;;1.57;;
77324;SDS011;66387;53.440;10.390;2023-04-04T02:08:27;1.60;;;1.33;;
77324;SDS011;66387;53.440;10.390;2023-04-04T02:10:52;2.88;;;1.63;;
77324;SDS011;66387;53.440;10.390;2023-04-04T02:13:17;5.90;;;1.80;;
77324;SDS011;66387;53.440;10.390;2023-04-04T02:15:43;3.47;;;1.30;;
77324;SDS011;66387;53.440;10.390;2023-04-04T02:18:09;3.80;;;1.10;;
77324;SDS011;66387;53.440;10.390;2023-04-04T02:20:34;2.13;;;1.40;;
77324;SDS011;66387;53.440;10.390;2023-04-04T02:22:59;4.17;;;1.97;;
77324;SDS011;66387;53.440;10.390;2023-04-04T02:25:24;3.33;;;1.40;;
77324;SDS011;66387;53.440;10.390;2023-04-04T02:27:50;6.37;;;2.00;;
77324;SDS011;66387;53.440;10.390;2023-04-04T02:30:16;2.88;;;1.50;;
77324;SDS011;66387;53.440;10.390;2023-04-04T02:32:41;3.50;;;1.90;;
77324;SDS011;66387;53.440;10.390;2023-04-04T02:35:07;4.40;;;1.67;;
77324;SDS011;66387;53.440;10.390;2023-04-04T02:37:32;2.85;;;1.60;;
77324;SDS011;66387;53.440;10.390;2023-04-04T02:39:57;4.00;;;2.03;;
77324;SDS011;66387;53.440;10.390;2023-04-04T02:42:23;5.13;;;1.63;;
77324;SDS011;66387;53.440;10.390;2023-04-04T02:44:48;1.57;;;1.40;;
77324;SDS011;66387;53.440;10.390;2023-04-04T02:47:13;2.77;;;1.30;;
77324;SDS011;66387;53.440;10.390;2023-04-04T02:49:38;3.60;;;1.63;;
77324;SDS011;66387;53.440;10.390;2023-04-04T02:52:04;3.37;;;1.90;;
77324;SDS011;66387;53.440;10.390;2023-04-04T02:54:29;4.73;;;1.40;;
77324;SDS011;66387;53.440;10.390;2023-04-04T02:56:54;3.90;;;1.50;;
77324;SDS011;66387;53.440;10.390;2023-04-04T02:59:20;1.88;;;1.35;;
77324;SDS011;66387;53.440;10.390;2023-04-04T03:01:45;1.80;;;1.20;;
77324;SDS011;66387;53.440;10.390;2023-04-04T03:04:11;2.22;;;1.48;;
77324;SDS011;66387;53.440;10.390;2023-04-04T03:06:36;2.47;;;1.70;;
77324;SDS011;66387;53.440;10.390;2023-04-04T03:09:03;1.52;;;1.05;;
77324;SDS011;66387;53.440;10.390;2023-04-04T03:11:29;2.47;;;2.08;;
77324;SDS011;66387;53.440;10.390;2023-04-04T03:13:55;2.50;;;1.83;;
77324;SDS011;66387;53.440;10.390;2023-04-04T03:16:20;1.95;;;1.40;;
77324;SDS011;66387;53.440;10.390;2023-04-04T03:18:46;5.35;;;1.55;;
77324;SDS011;66387;53.440;10.390;2023-04-04T03:21:11;4.25;;;2.15;;
77324;SDS011;66387;53.440;10.390;2023-04-04T03:23:37;5.78;;;1.58;;
77324;SDS011;66387;53.440;10.390;2023-04-04T03:26:02;2.80;;;1.67;;
77324;SDS011;66387;53.440;10.390;2023-04-04T03:28:28;2.22;;;1.52;;
77324;SDS011;66387;53.440;10.390;2023-04-04T03:30:53;4.82;;;2.13;;
77324;SDS011;66387;53.440;10.390;2023-04-04T03:33:18;3.90;;;1.77;;
77324;SDS011;66387;53.440;10.390;2023-04-04T03:35:45;2.65;;;1.77;;
77324;SDS011;66387;53.440;10.390;2023-04-04T03:38:11;3.47;;;2.25;;
77324;SDS011;66387;53.440;10.390;2023-04-04T03:40:37;3.55;;;1.90;;
77324;SDS011;66387;53.440;10.390;2023-04-04T03:43:02;3.40;;;2.00;;
77324;SDS011;66387;53.440;10.390;2023-04-04T03:45:31;2.70;;;2.05;;
77324;SDS011;66387;53.440;10.390;2023-04-04T03:47:58;4.57;;;2.10;;
77324;SDS011;66387;53.440;10.390;2023-04-04T03:50:23;4.80;;;2.10;;
77324;SDS011;66387;53.440;10.390;2023-04-04T03:52:48;4.05;;;1.83;;
77324;SDS011;66387;53.440;10.390;2023-04-04T03:55:14;3.90;;;2.42;;
77324;SDS011;66387;53.440;10.390;2023-04-04T03:57:39;2.67;;;1.63;;
77324;SDS011;66387;53.440;10.390;2023-04-04T04:00:05;3.40;;;1.67;;
77324;SDS011;66387;53.440;10.390;2023-04-04T04:02:30;2.97;;;1.98;;
77324;SDS011;66387;53.440;10.390;2023-04-04T04:04:56;2.87;;;1.80;;
77324;SDS011;66387;53.440;10.390;2023-04-04T04:07:21;3.57;;;1.67;;
77324;SDS011;66387;53.440;10.390;2023-04-04T04:09:46;2.85;;;1.52;;
77324;SDS011;66387;53.440;10.390;2023-04-04T04:12:11;2.17;;;1.50;;
77324;SDS011;66387;53.440;10.390;2023-04-04T04:14:37;2.67;;;1.50;;
77324;SDS011;66387;53.440;10.390;2023-04-04T04:17:02;2.13;;;1.60;;
77324;SDS011;66387;53.440;10.390;2023-04-04T04:19:28;4.80;;;1.50;;
77324;SDS011;66387;53.440;10.390;2023-04-04T04:21:53;4.17;;;2.23;;
77324;SDS011;66387;53.440;10.390;2023-04-04T04:24:18;3.80;;;2.20;;
77324;SDS011;66387;53.440;10.390;2023-04-04T04:26:43;3.50;;;1.80;;
77324;SDS011;66387;53.440;10.390;2023-04-04T04:29:08;5.43;;;2.17;;
77324;SDS011;66387;53.440;10.390;2023-04-04T04:31:34;5.90;;;1.90;;
77324;SDS011;66387;53.440;10.390;2023-04-04T04:33:59;2.17;;;1.47;;
77324;SDS011;66387;53.440;10.390;2023-04-04T04:36:24;2.87;;;1.93;;
77324;SDS011;66387;53.440;10.390;2023-04-04T04:38:50;2.92;;;1.98;;
77324;SDS011;66387;53.440;10.390;2023-04-04T04:41:15;3.05;;;1.95;;
77324;SDS011;66387;53.440;10.390;2023-04-04T04:43:41;3.28;;;1.70;;
77324;SDS011;66387;53.440;10.390;2023-04-04T04:46:06;2.83;;;1.50;;
77324;SDS011;66387;53.440;10.390;2023-04-04T04:48:32;5.32;;;2.08;;
77324;SDS011;66387;53.440;10.390;2023-04-04T04:50:58;2.20;;;1.70;;
77324;SDS011;66387;53.440;10.390;2023-04-04T04:53:23;2.63;;;1.53;;
77324;SDS011;66387;53.440;10.390;2023-04-04T04:55:48;2.40;;;1.67;;
77324;SDS011;66387;53.440;10.390;2023-04-04T04:58:16;4.78;;;2.15;;
77324;SDS011;66387;53.440;10.390;2023-04-04T05:00:41;5.57;;;2.90;;
77324;SDS011;66387;53.440;10.390;2023-04-04T05:03:07;3.67;;;2.42;;
77324;SDS011;66387;53.440;10.390;2023-04-04T05:05:32;4.97;;;2.37;;
77324;SDS011;66387;53.440;10.390;2023-04-04T05:07:59;4.32;;;2.10;;
77324;SDS011;66387;53.440;10.390;2023-04-04T05:10:25;5.03;;;2.17;;
77324;SDS011;66387;53.440;10.390;2023-04-04T05:12:50;2.93;;;2.03;;
77324;SDS011;66387;53.440;10.390;2023-04-04T05:15:15;5.47;;;2.27;;
77324;SDS011;66387;53.440;10.390;2023-04-04T05:17:41;3.38;;;2.03;;
77324;SDS011;66387;53.440;10.390;2023-04-04T05:20:06;4.20;;;1.67;;
77324;SDS011;66387;53.440;10.390;2023-04-04T05:22:32;3.45;;;1.67;;
77324;SDS011;66387;53.440;10.390;2023-04-04T05:24:57;2.40;;;1.55;;
77324;SDS011;66387;53.440;10.390;2023-04-04T05:27:23;3.83;;;1.77;;
77324;SDS011;66387;53.440;10.390;2023-04-04T05:29:48;2.58;;;1.80;;
77324;SDS011;66387;53.440;10.390;2023-04-04T05:32:13;4.05;;;1.52;;
77324;SDS011;66387;53.440;10.390;2023-04-04T05:34:39;4.97;;;1.77;;
77324;SDS011;66387;53.440;10.390;2023-04-04T05:37:05;2.25;;;1.65;;
77324;SDS011;66387;53.440;10.390;2023-04-04T05:39:30;2.83;;;1.77;;
77324;SDS011;66387;53.440;10.390;2023-04-04T05:41:55;3.88;;;2.33;;
77324;SDS011;66387;53.440;10.390;2023-04-04T05:44:21;3.47;;;1.97;;
77324;SDS011;66387;53.440;10.390;2023-04-04T05:46:46;3.57;;;2.10;;
77324;SDS011;66387;53.440;10.390;2023-04-04T05:49:11;2.67;;;1.88;;
77324;SDS011;66387;53.440;10.390;2023-04-04T05:51:36;3.97;;;1.83;;
77324;SDS011;66387;53.440;10.390;2023-04-04T05:54:02;3.03;;;1.87;;
77324;SDS011;66387;53.440;10.390;2023-04-04T05:56:27;3.30;;;1.98;;
77324;SDS011;66387;53.440;10.390;2023-04-04T05:58:52;3.67;;;2.47;;
77324;SDS011;66387;53.440;10.390;2023-04-04T06:01:18;3.53;;;1.93;;
77324;SDS011;66387;53.440;10.390;2023-04-04T06:03:43;4.35;;;1.63;;
77324;SDS011;66387;53.440;10.390;2023-04-04T06:06:08;3.93;;;2.73;;
77324;SDS011;66387;53.440;10.390;2023-04-04T06:08:34;3.78;;;2.45;;
77324;SDS011;66387;53.440;10.390;2023-04-04T06:10:59;4.47;;;2.10;;
77324;SDS011;66387;53.440;10.390;2023-04-04T06:13:24;2.80;;;2.17;;
77324;SDS011;66387;53.440;10.390;2023-04-04T06:15:50;4.93;;;2.30;;
77324;SDS011;66387;53.440;10.390;2023-04-04T06:18:15;4.60;;;2.40;;
77324;SDS011;66387;53.440;10.390;2023-04-04T06:20:41;4.40;;;2.40;;
77324;SDS011;66387;53.440;10.390;2023-04-04T06:23:06;3.97;;;2.10;;
77324;SDS011;66387;53.440;10.390;2023-04-04T06:25:33;5.68;;;1.70;;
77324;SDS011;66387;53.440;10.390;2023-04-04T06:28:00;4.47;;;2.08;;
77324;SDS011;66387;53.440;10.390;2023-04-04T06:30:25;4.90;;;2.30;;
77324;SDS011;66387;53.440;10.390;2023-04-04T06:32:51;2.92;;;1.80;;
77324;SDS011;66387;53.440;10.390;2023-04-04T06:35:16;5.13;;;2.45;;
77324;SDS011;66387;53.440;10.390;2023-04-04T06:37:41;5.33;;;2.40;;
77324;SDS011;66387;53.440;10.390;2023-04-04T06:40:07;2.67;;;2.13;;
77324;SDS011;66387;53.440;10.390;2023-04-04T06:42:32;5.35;;;1.83;;
77324;SDS011;66387;53.440;10.390;2023-04-04T06:44:58;3.83;;;1.75;;
77324;SDS011;66387;53.440;10.390;2023-04-04T06:47:23;5.67;;;2.70;;
77324;SDS011;66387;53.440;10.390;2023-04-04T06:49:48;2.60;;;1.80;;
77324;SDS011;66387;53.440;10.390;2023-04-04T06:52:14;2.70;;;1.97;;
77324;SDS011;66387;53.440;10.390;2023-04-04T06:54:39;5.43;;;2.30;;
77324;SDS011;66387;53.440;10.390;2023-04-04T06:57:04;5.72;;;2.65;;
77324;SDS011;66387;53.440;10.390;2023-04-04T06:59:30;4.63;;;2.43;;
77324;SDS011;66387;53.440;10.390;2023-04-04T07:01:55;5.43;;;2.43;;
77324;SDS011;66387;53.440;10.390;2023-04-04T07:04:21;4.82;;;2.33;;
77324;SDS011;66387;53.440;10.390;2023-04-04T07:06:46;4.27;;;2.23;;
77324;SDS011;66387;53.440;10.390;2023-04-04T07:09:11;2.60;;;1.97;;
77324;SDS011;66387;53.440;10.390;2023-04-04T07:11:37;2.50;;;1.50;;
77324;SDS011;66387;53.440;10.390;2023-04-04T07:14:02;4.60;;;2.07;;
77324;SDS011;66387;53.440;10.390;2023-04-04T07:16:27;3.80;;;1.73;;
77324;SDS011;66387;53.440;10.390;2023-04-04T07:18:53;1.83;;;1.70;;
77324;SDS011;66387;53.440;10.390;2023-04-04T07:21:19;6.93;;;2.28;;
77324;SDS011;66387;53.440;10.390;2023-04-04T07:23:44;5.00;;;2.70;;
77324;SDS011;66387;53.440;10.390;2023-04-04T07:26:10;2.25;;;1.52;;
77324;SDS011;66387;53.440;10.390;2023-04-04T07:28:35;4.18;;;1.85;;
77324;SDS011;66387;53.440;10.390;2023-04-04T07:31:01;1.98;;;1.42;;
77324;SDS011;66387;53.440;10.390;2023-04-04T07:33:27;2.90;;;1.33;;
77324;SDS011;66387;53.440;10.390;2023-04-04T07:35:53;3.67;;;1.90;;
77324;SDS011;66387;53.440;10.390;2023-04-04T07:38:18;3.28;;;1.42;;
77324;SDS011;66387;53.440;10.390;2023-04-04T07:40:44;2.40;;;1.60;;
77324;SDS011;66387;53.440;10.390;2023-04-04T07:43:09;3.30;;;1.77;;
77324;SDS011;66387;53.440;10.390;2023-04-04T07:45:34;2.57;;;1.37;;
77324;SDS011;66387;53.440;10.390;2023-04-04T07:48:00;1.63;;;1.02;;
77324;SDS011;66387;53.440;10.390;2023-04-04T07:50:26;2.47;;;2.08;;
77324;SDS011;66387;53.440;10.390;2023-04-04T07:52:51;2.13;;;1.25;;
77324;SDS011;66387;53.440;10.390;2023-04-04T07:55:18;3.95;;;1.60;;
77324;SDS011;66387;53.440;10.390;2023-04-04T07:57:44;2.80;;;1.40;;
77324;SDS011;66387;53.440;10.390;2023-04-04T08:00:09;3.00;;;1.60;;
77324;SDS011;66387;53.440;10.390;2023-04-04T08:02:35;3.72;;;2.10;;
77324;SDS011;66387;53.440;10.390;2023-04-04T08:05:01;4.93;;;2.00;;
77324;SDS011;66387;53.440;10.390;2023-04-04T08:07:26;3.17;;;1.60;;
77324;SDS011;66387;53.440;10.390;2023-04-04T08:09:52;3.65;;;1.73;;
77324;SDS011;66387;53.440;10.390;2023-04-04T08:12:17;4.23;;;1.50;;
77324;SDS011;66387;53.440;10.390;2023-04-04T08:14:42;2.65;;;1.40;;
77324;SDS011;66387;53.440;10.390;2023-04-04T08:17:07;4.65;;;1.80;;
77324;SDS011;66387;53.440;10.390;2023-04-04T08:19:33;4.87;;;1.33;;
77324;SDS011;66387;53.440;10.390;2023-04-04T08:21:58;2.42;;;1.42;;
77324;SDS011;66387;53.440;10.390;2023-04-04T08:24:23;4.82;;;1.10;;
77324;SDS011;66387;53.440;10.390;2023-04-04T08:26:49;3.13;;;1.10;;
77324;SDS011;66387;53.440;10.390;2023-04-04T08:29:14;4.40;;;1.67;;
77324;SDS011;66387;53.440;10.390;2023-04-04T08:31:39;3.67;;;1.30;;
77324;SDS011;66387;53.440;10.390;2023-04-04T08:34:05;1.52;;;1.08;;
77324;SDS011;66387;53.440;10.390;2023-04-04T08:36:32;2.40;;;1.00;;
77324;SDS011;66387;53.440;10.390;2023-04-04T08:38:57;1.20;;;0.98;;
77324;SDS011;66387;53.440;10.390;2023-04-04T08:41:23;2.97;;;1.30;;
77324;SDS011;66387;53.440;10.390;2023-04-04T08:43:49;1.50;;;1.20;;
77324;SDS011;66387;53.440;10.390;2023-04-04T08:46:19;1.80;;;0.68;;
77324;SDS011;66387;53.440;10.390;2023-04-04T08:48:46;1.17;;;0.77;;
77324;SDS011;66387;53.440;10.390;2023-04-04T08:51:14;0.93;;;0.77;;
77324;SDS011;66387;53.440;10.390;2023-04-04T08:53:41;2.28;;;0.95;;
77324;SDS011;66387;53.440;10.390;2023-04-04T08:56:06;1.88;;;0.95;;
77324;SDS011;66387;53.440;10.390;2023-04-04T08:58:32;2.23;;;1.00;;
77324;SDS011;66387;53.440;10.390;2023-04-04T09:00:57;2.28;;;1.20;;
77324;SDS011;66387;53.440;10.390;2023-04-04T09:03:23;2.30;;;0.90;;
77324;SDS011;66387;53.440;10.390;2023-04-04T09:05:54;2.28;;;1.15;;
77324;SDS011;66387;53.440;10.390;2023-04-04T09:08:20;1.25;;;1.15;;
77324;SDS011;66387;53.440;10.390;2023-04-04T09:13:14;2.25;;;1.00;;
77324;SDS011;66387;53.440;10.390;2023-04-04T09:15:40;1.80;;;1.27;;
77324;SDS011;66387;53.440;10.390;2023-04-04T09:18:10;3.20;;;1.13;;
77324;SDS011;66387;53.440;10.390;2023-04-04T09:20:39;1.50;;;1.10;;
77324;SDS011;66387;53.440;10.390;2023-04-04T09:23:12;2.03;;;1.70;;
77324;SDS011;66387;53.440;10.390;2023-04-04T09:25:46;1.55;;;0.95;;
77324;SDS011;66387;53.440;10.390;2023-04-04T09:28:16;2.90;;;1.20;;
77324;SDS011;66387;53.440;10.390;2023-04-04T09:30:42;1.27;;;0.80;;
77324;SDS011;66387;53.440;10.390;2023-04-04T09:33:10;2.60;;;1.33;;
77324;SDS011;66387;53.440;10.390;2023-04-04T09:35:37;1.45;;;1.17;;
77324;SDS011;66387;53.440;10.390;2023-04-04T09:38:06;2.80;;;1.00;;
77324;SDS011;66387;53.440;10.390;2023-04-04T09:40:33;2.97;;;1.15;;
77324;SDS011;66387;53.440;10.390;2023-04-04T09:42:59;2.22;;;1.02;;
77324;SDS011;66387;53.440;10.390;2023-04-04T09:45:26;1.45;;;0.90;;
77324;SDS011;66387;53.440;10.390;2023-04-04T09:47:54;1.80;;;1.00;;
77324;SDS011;66387;53.440;10.390;2023-04-04T09:50:20;3.10;;;1.05;;
77324;SDS011;66387;53.440;10.390;2023-04-04T09:52:47;2.30;;;1.00;;
77324;SDS011;66387;53.440;10.390;2023-04-04T09:55:16;1.98;;;1.02;;
77324;SDS011;66387;53.440;10.390;2023-04-04T09:57:42;2.13;;;0.95;;
77324;SDS011;66387;53.440;10.390;2023-04-04T10:00:10;2.78;;;0.98;;
77324;SDS011;66387;53.440;10.390;2023-04-04T10:02:37;2.20;;;0.82;;
77324;SDS011;66387;53.440;10.390;2023-04-04T10:05:07;1.83;;;1.02;;
77324;SDS011;66387;53.440;10.390;2023-04-04T10:07:35;1.48;;;1.30;;
77324;SDS011;66387;53.440;10.390;2023-04-04T10:10:05;1.33;;;0.93;;
77324;SDS011;66387;53.440;10.390;2023-04-04T10:12:32;3.65;;;1.60;;
77324;SDS011;66387;53.440;10.390;2023-04-04T10:14:58;1.73;;;1.05;;
77324;SDS011;66387;53.440;10.390;2023-04-04T10:17:35;1.80;;;1.20;;
77324;SDS011;66387;53.440;10.390;2023-04-04T10:20:05;2.38;;;1.00;;
77324;SDS011;66387;53.440;10.390;2023-04-04T10:22:33;1.85;;;1.00;;
77324;SDS011;66387;53.440;10.390;2023-04-04T10:25:00;2.97;;;0.80;;
77324;SDS011;66387;53.440;10.390;2023-04-04T10:27:25;1.00;;;0.70;;
77324;SDS011;66387;53.440;10.390;2023-04-04T10:29:51;2.83;;;1.00;;
77324;SDS011;66387;53.440;10.390;2023-04-04T10:32:25;1.25;;;0.75;;
77324;SDS011;66387;53.440;10.390;2023-04-04T10:37:25;1.52;;;0.95;;
77324;SDS011;66387;53.440;10.390;2023-04-04T10:40:04;1.55;;;0.60;;
77324;SDS011;66387;53.440;10.390;2023-04-04T10:42:38;1.33;;;0.80;;
77324;SDS011;66387;53.440;10.390;2023-04-04T10:45:06;1.15;;;0.75;;
77324;SDS011;66387;53.440;10.390;2023-04-04T10:47:33;1.50;;;0.90;;
77324;SDS011;66387;53.440;10.390;2023-04-04T10:50:00;1.23;;;0.70;;
77324;SDS011;66387;53.440;10.390;2023-04-04T10:52:27;2.45;;;1.23;;
77324;SDS011;66387;53.440;10.390;2023-04-04T10:54:56;2.30;;;0.95;;
77324;SDS011;66387;53.440;10.390;2023-04-04T10:57:26;1.75;;;0.90;;
77324;SDS011;66387;53.440;10.390;2023-04-04T11:07:54;1.77;;;0.98;;
77324;SDS011;66387;53.440;10.390;2023-04-04T11:10:28;1.77;;;0.95;;
77324;SDS011;66387;53.440;10.390;2023-04-04T11:13:00;1.00;;;0.80;;
77324;SDS011;66387;53.440;10.390;2023-04-04T11:21:03;1.58;;;0.63;;
77324;SDS011;66387;53.440;10.390;2023-04-04T11:26:11;2.13;;;1.02;;
77324;SDS011;66387;53.440;10.390;2023-04-04T11:33:56;1.80;;;1.02;;
77324;SDS011;66387;53.440;10.390;2023-04-04T11:39:05;1.45;;;0.70;;
77324;SDS011;66387;53.440;10.390;2023-04-04T11:44:25;1.30;;;0.77;;
77324;SDS011;66387;53.440;10.390;2023-04-04T11:49:34;1.20;;;0.88;;
77324;SDS011;66387;53.440;10.390;2023-04-04T11:52:05;3.63;;;1.17;;
77324;SDS011;66387;53.440;10.390;2023-04-04T11:54:32;1.70;;;1.00;;
77324;SDS011;66387;53.440;10.390;2023-04-04T11:56:58;1.55;;;1.08;;
77324;SDS011;66387;53.440;10.390;2023-04-04T11:59:24;2.13;;;1.23;;
77324;SDS011;66387;53.440;10.390;2023-04-04T12:01:49;1.23;;;0.80;;
77324;SDS011;66387;53.440;10.390;2023-04-04T12:04:18;3.50;;;1.50;;
77324;SDS011;66387;53.440;10.390;2023-04-04T12:06:45;1.90;;;1.00;;
77324;SDS011;66387;53.440;10.390;2023-04-04T12:09:15;3.15;;;1.00;;
77324;SDS011;66387;53.440;10.390;2023-04-04T12:11:42;4.38;;;2.13;;
77324;SDS011;66387;53.440;10.390;2023-04-04T12:14:14;1.02;;;0.75;;
77324;SDS011;66387;53.440;10.390;2023-04-04T12:16:42;1.15;;;0.73;;
77324;SDS011;66387;53.440;10.390;2023-04-04T12:19:08;1.50;;;1.10;;
77324;SDS011;66387;53.440;10.390;2023-04-04T12:21:35;1.75;;;0.85;;
77324;SDS011;66387;53.440;10.390;2023-04-04T12:24:00;2.23;;;1.23;;
77324;SDS011;66387;53.440;10.390;2023-04-04T12:26:25;1.97;;;1.23;;
77324;SDS011;66387;53.440;10.390;2023-04-04T12:28:54;2.63;;;1.05;;
77324;SDS011;66387;53.440;10.390;2023-04-04T12:31:22;2.53;;;1.13;;
77324;SDS011;66387;53.440;10.390;2023-04-04T12:33:48;2.42;;;0.95;;
77324;SDS011;66387;53.440;10.390;2023-04-04T12:36:13;2.47;;;1.70;;
77324;SDS011;66387;53.440;10.390;2023-04-04T12:38:54;2.78;;;1.00;;
77324;SDS011;66387;53.440;10.390;2023-04-04T12:41:29;1.42;;;0.95;;
77324;SDS011;66387;53.440;10.390;2023-04-04T12:44:01;1.88;;;0.82;;
77324;SDS011;66387;53.440;10.390;2023-04-04T12:46:27;3.28;;;1.42;;
77324;SDS011;66387;53.440;10.390;2023-04-04T12:48:59;2.15;;;1.45;;
77324;SDS011;66387;53.440;10.390;2023-04-04T12:51:29;1.30;;;0.80;;
77324;SDS011;66387;53.440;10.390;2023-04-04T12:53:56;2.58;;;1.30;;
77324;SDS011;66387;53.440;10.390;2023-04-04T12:56:24;1.35;;;1.10;;
77324;SDS011;66387;53.440;10.390;2023-04-04T12:58:51;1.42;;;0.85;;
77324;SDS011;66387;53.440;10.390;2023-04-04T13:01:16;2.57;;;0.90;;
77324;SDS011;66387;53.440;10.390;2023-04-04T13:03:42;3.03;;;0.98;;
77324;SDS011;66387;53.440;10.390;2023-04-04T13:06:16;1.25;;;0.93;;
77324;SDS011;66387;53.440;10.390;2023-04-04T13:08:53;2.13;;;0.93;;
77324;SDS011;66387;53.440;10.390;2023-04-04T13:11:18;2.00;;;1.17;;
77324;SDS011;66387;53.440;10.390;2023-04-04T13:13:44;2.33;;;0.93;;
77324;SDS011;66387;53.440;10.390;2023-04-04T13:16:11;2.80;;;1.10;;
77324;SDS011;66387;53.440;10.390;2023-04-04T13:18:41;2.20;;;1.23;;
77324;SDS011;66387;53.440;10.390;2023-04-04T13:21:09;1.70;;;1.17;;
77324;SDS011;66387;53.440;10.390;2023-04-04T13:23:36;1.80;;;1.20;;
77324;SDS011;66387;53.440;10.390;2023-04-04T13:26:05;1.42;;;1.08;;
77324;SDS011;66387;53.440;10.390;2023-04-04T13:28:32;2.33;;;1.20;;
77324;SDS011;66387;53.440;10.390;2023-04-04T13:31:01;4.20;;;1.33;;
77324;SDS011;66387;53.440;10.390;2023-04-04T13:33:30;1.05;;;0.93;;
77324;SDS011;66387;53.440;10.390;2023-04-04T13:35:56;2.13;;;1.33;;
77324;SDS011;66387;53.440;10.390;2023-04-04T13:38:22;1.73;;;1.00;;
77324;SDS011;66387;53.440;10.390;2023-04-04T13:40:47;2.22;;;0.98;;
77324;SDS011;66387;53.440;10.390;2023-04-04T13:43:13;3.95;;;1.45;;
77324;SDS011;66387;53.440;10.390;2023-04-04T13:45:39;1.83;;;1.00;;
77324;SDS011;66387;53.440;10.390;2023-04-04T13:48:06;1.52;;;1.25;;
77324;SDS011;66387;53.440;10.390;2023-04-04T13:50:34;1.95;;;1.20;;
77324;SDS011;66387;53.440;10.390;2023-04-04T13:53:03;1.05;;;0.90;;
77324;SDS011;66387;53.440;10.390;2023-04-04T13:55:28;1.77;;;1.10;;
77324;SDS011;66387;53.440;10.390;2023-04-04T13:57:53;2.60;;;1.38;;
77324;SDS011;66387;53.440;10.390;2023-04-04T14:00:19;1.47;;;1.00;;
77324;SDS011;66387;53.440;10.390;2023-04-04T14:02:44;1.98;;;1.10;;
77324;SDS011;66387;53.440;10.390;2023-04-04T14:05:10;2.45;;;0.93;;
77324;SDS011;66387;53.440;10.390;2023-04-04T14:07:36;2.90;;;1.40;;
77324;SDS011;66387;53.440;10.390;2023-04-04T14:10:02;1.77;;;1.05;;
77324;SDS011;66387;53.440;10.390;2023-04-04T14:12:29;1.88;;;1.15;;
77324;SDS011;66387;53.440;10.390;2023-04-04T14:14:54;2.17;;;1.15;;
77324;SDS011;66387;53.440;10.390;2023-04-04T14:17:19;3.93;;;1.37;;
77324;SDS011;66387;53.440;10.390;2023-04-04T14:19:45;2.10;;;1.05;;
77324;SDS011;66387;53.440;10.390;2023-04-04T14:22:10;1.47;;;1.20;;
77324;SDS011;66387;53.440;10.390;2023-04-04T14:24:35;1.37;;;1.27;;
77324;SDS011;66387;53.440;10.390;2023-04-04T14:27:00;4.13;;;1.53;;
77324;SDS011;66387;53.440;10.390;2023-04-04T14:29:26;3.00;;;1.50;;
77324;SDS011;66387;53.440;10.390;2023-04-04T14:31:51;2.00;;;1.37;;
77324;SDS011;66387;53.440;10.390;2023-04-04T14:34:16;2.22;;;1.17;;
77324;SDS011;66387;53.440;10.390;2023-04-04T14:36:42;2.03;;;1.33;;
77324;SDS011;66387;53.440;10.390;2023-04-04T14:39:07;1.97;;;1.50;;
77324;SDS011;66387;53.440;10.390;2023-04-04T14:41:32;1.73;;;1.13;;
77324;SDS011;66387;53.440;10.390;2023-04-04T14:43:58;3.67;;;1.10;;
77324;SDS011;66387;53.440;10.390;2023-04-04T14:46:23;5.40;;;3.00;;
77324;SDS011;66387;53.440;10.390;2023-04-04T14:48:49;16.17;;;11.73;;
77324;SDS011;66387;53.440;10.390;2023-04-04T14:51:15;5.00;;;1.65;;
77324;SDS011;66387;53.440;10.390;2023-04-04T14:56:08;3.43;;;2.40;;
77324;SDS011;66387;53.440;10.390;2023-04-04T14:58:34;86.88;;;48.75;;
77324;SDS011;66387;53.440;10.390;2023-04-04T15:00:59;83.93;;;45.63;;
77324;SDS011;66387;53.440;10.390;2023-04-04T15:03:25;24.88;;;13.30;;
77324;SDS011;66387;53.440;10.390;2023-04-04T15:05:51;4.53;;;1.67;;
77324;SDS011;66387;53.440;10.390;2023-04-04T15:08:16;1.97;;;1.10;;
77324;SDS011;66387;53.440;10.390;2023-04-04T15:10:41;5.50;;;2.50;;